sensor_id;sensor_type;location;lat;lon;timestamp;P1;durP1;ratioP1;P2;durP2;ratioP2
22060;SDS011;11194;48.092;-1.382;2023-08-06T00:01:20;11.45;;;4.10;;
22060;SDS011;11194;48.092;-1.382;2023-08-06T00:03:51;9.05;;;3.75;;
22060;SDS011;11194;48.092;-1.382;2023-08-06T00:06:17;8.25;;;3.47;;
22060;SDS011;11194;48.092;-1.382;2023-08-06T00:08:43;10.95;;;3.67;;
22060;SDS011;11194;48.092;-1.382;2023-08-06T00:11:09;8.48;;;3.63;;
22060;SDS011;11194;48.092;-1.382;2023-08-06T00:13:35;8.27;;;3.72;;
22060;SDS011;11194;48.092;-1.382;2023-08-06T00:16:11;6.70;;;3.13;;
22060;SDS011;11194;48.092;-1.382;2023-08-06T00:18:38;10.75;;;3.70;;
22060;SDS011;11194;48.092;-1.382;2023-08-06T00:21:04;7.57;;;3.08;;
22060;SDS011;11194;48.092;-1.382;2023-08-06T00:23:30;7.97;;;2.90;;
22060;SDS011;11194;48.092;-1.382;2023-08-06T00:25:56;9.07;;;3.08;;
22060;SDS011;11194;48.092;-1.382;2023-08-06T00:28:22;11.32;;;3.20;;
22060;SDS011;11194;48.092;-1.382;2023-08-06T00:30:52;11.23;;;3.50;;
22060;SDS011;11194;48.092;-1.382;2023-08-06T00:33:19;14.05;;;3.45;;
22060;SDS011;11194;48.092;-1.382;2023-08-06T00:35:45;8.52;;;3.05;;
22060;SDS011;11194;48.092;-1.382;2023-08-06T00:38:11;7.75;;;3.03;;
22060;SDS011;11194;48.092;-1.382;2023-08-06T00:40:37;8.93;;;3.33;;
22060;SDS011;11194;48.092;-1.382;2023-08-06T00:43:03;6.68;;;2.88;;
22060;SDS011;11194;48.092;-1.382;2023-08-06T00:45:30;7.28;;;2.90;;
22060;SDS011;11194;48.092;-1.382;2023-08-06T00:47:57;7.63;;;3.13;;
22060;SDS011;11194;48.092;-1.382;2023-08-06T00:50:23;9.00;;;3.30;;
22060;SDS011;11194;48.092;-1.382;2023-08-06T00:52:49;12.05;;;3.13;;
22060;SDS011;11194;48.092;-1.382;2023-08-06T00:55:15;8.05;;;3.15;;
22060;SDS011;11194;48.092;-1.382;2023-08-06T00:57:41;8.68;;;3.40;;
22060;SDS011;11194;48.092;-1.382;2023-08-06T01:00:08;9.35;;;3.22;;
22060;SDS011;11194;48.092;-1.382;2023-08-06T01:02:34;9.60;;;3.88;;
22060;SDS011;11194;48.092;-1.382;2023-08-06T01:05:00;11.25;;;3.25;;
22060;SDS011;11194;48.092;-1.382;2023-08-06T01:15:29;7.57;;;3.65;;
22060;SDS011;11194;48.092;-1.382;2023-08-06T01:17:55;8.25;;;3.45;;
22060;SDS011;11194;48.092;-1.382;2023-08-06T01:20:21;10.93;;;3.80;;
22060;SDS011;11194;48.092;-1.382;2023-08-06T01:22:47;6.88;;;3.60;;
22060;SDS011;11194;48.092;-1.382;2023-08-06T01:25:14;8.90;;;3.83;;
22060;SDS011;11194;48.092;-1.382;2023-08-06T01:30:15;8.45;;;3.35;;
22060;SDS011;11194;48.092;-1.382;2023-08-06T01:32:43;8.45;;;3.72;;
22060;SDS011;11194;48.092;-1.382;2023-08-06T01:35:10;9.95;;;3.35;;
22060;SDS011;11194;48.092;-1.382;2023-08-06T01:37:37;11.65;;;4.07;;
22060;SDS011;11194;48.092;-1.382;2023-08-06T01:40:10;8.90;;;3.65;;
22060;SDS011;11194;48.092;-1.382;2023-08-06T01:42:39;10.00;;;4.65;;
22060;SDS011;11194;48.092;-1.382;2023-08-06T01:45:08;8.02;;;3.72;;
22060;SDS011;11194;48.092;-1.382;2023-08-06T01:47:35;9.27;;;3.65;;
22060;SDS011;11194;48.092;-1.382;2023-08-06T01:50:01;9.82;;;3.80;;
22060;SDS011;11194;48.092;-1.382;2023-08-06T01:52:27;9.07;;;3.55;;
22060;SDS011;11194;48.092;-1.382;2023-08-06T01:54:53;10.70;;;3.97;;
22060;SDS011;11194;48.092;-1.382;2023-08-06T01:57:19;8.40;;;3.25;;
22060;SDS011;11194;48.092;-1.382;2023-08-06T01:59:46;9.23;;;3.78;;
22060;SDS011;11194;48.092;-1.382;2023-08-06T02:02:12;6.97;;;3.40;;
22060;SDS011;11194;48.092;-1.382;2023-08-06T02:04:38;10.07;;;3.80;;
22060;SDS011;11194;48.092;-1.382;2023-08-06T02:07:04;4.32;;;3.33;;
22060;SDS011;11194;48.092;-1.382;2023-08-06T02:09:30;5.93;;;3.42;;
22060;SDS011;11194;48.092;-1.382;2023-08-06T02:11:56;11.07;;;3.92;;
22060;SDS011;11194;48.092;-1.382;2023-08-06T02:14:22;8.50;;;3.80;;
22060;SDS011;11194;48.092;-1.382;2023-08-06T02:16:48;7.93;;;4.15;;
22060;SDS011;11194;48.092;-1.382;2023-08-06T02:19:15;9.07;;;3.92;;
22060;SDS011;11194;48.092;-1.382;2023-08-06T02:21:43;8.63;;;3.80;;
22060;SDS011;11194;48.092;-1.382;2023-08-06T02:24:09;11.02;;;3.80;;
22060;SDS011;11194;48.092;-1.382;2023-08-06T02:26:35;8.88;;;3.83;;
22060;SDS011;11194;48.092;-1.382;2023-08-06T02:29:01;13.32;;;3.90;;
22060;SDS011;11194;48.092;-1.382;2023-08-06T02:31:27;8.60;;;3.67;;
22060;SDS011;11194;48.092;-1.382;2023-08-06T02:33:53;8.68;;;3.60;;
22060;SDS011;11194;48.092;-1.382;2023-08-06T02:36:19;8.88;;;3.95;;
22060;SDS011;11194;48.092;-1.382;2023-08-06T02:38:45;8.60;;;3.72;;
22060;SDS011;11194;48.092;-1.382;2023-08-06T02:41:11;5.10;;;4.03;;
22060;SDS011;11194;48.092;-1.382;2023-08-06T02:43:37;9.55;;;3.67;;
22060;SDS011;11194;48.092;-1.382;2023-08-06T02:46:03;7.68;;;3.50;;
22060;SDS011;11194;48.092;-1.382;2023-08-06T02:48:29;7.75;;;4.18;;
22060;SDS011;11194;48.092;-1.382;2023-08-06T02:50:59;8.13;;;4.25;;
22060;SDS011;11194;48.092;-1.382;2023-08-06T02:53:25;8.75;;;4.80;;
22060;SDS011;11194;48.092;-1.382;2023-08-06T02:55:51;10.18;;;4.43;;
22060;SDS011;11194;48.092;-1.382;2023-08-06T02:58:18;5.22;;;4.10;;
22060;SDS011;11194;48.092;-1.382;2023-08-06T03:00:58;6.47;;;4.13;;
22060;SDS011;11194;48.092;-1.382;2023-08-06T03:03:24;6.90;;;3.78;;
22060;SDS011;11194;48.092;-1.382;2023-08-06T03:05:53;7.28;;;4.00;;
22060;SDS011;11194;48.092;-1.382;2023-08-06T03:08:19;4.90;;;3.47;;
22060;SDS011;11194;48.092;-1.382;2023-08-06T03:10:47;11.93;;;4.40;;
22060;SDS011;11194;48.092;-1.382;2023-08-06T03:13:13;5.55;;;4.00;;
22060;SDS011;11194;48.092;-1.382;2023-08-06T03:15:39;8.93;;;4.30;;
22060;SDS011;11194;48.092;-1.382;2023-08-06T03:18:05;6.30;;;4.28;;
22060;SDS011;11194;48.092;-1.382;2023-08-06T03:20:32;9.32;;;4.07;;
22060;SDS011;11194;48.092;-1.382;2023-08-06T03:22:58;5.90;;;4.43;;
22060;SDS011;11194;48.092;-1.382;2023-08-06T03:25:24;9.48;;;4.55;;
22060;SDS011;11194;48.092;-1.382;2023-08-06T03:27:50;11.68;;;4.93;;
22060;SDS011;11194;48.092;-1.382;2023-08-06T03:30:16;8.90;;;4.88;;
22060;SDS011;11194;48.092;-1.382;2023-08-06T03:32:42;12.02;;;5.18;;
22060;SDS011;11194;48.092;-1.382;2023-08-06T03:35:08;11.25;;;5.22;;
22060;SDS011;11194;48.092;-1.382;2023-08-06T03:37:34;9.40;;;5.75;;
22060;SDS011;11194;48.092;-1.382;2023-08-06T03:40:00;11.23;;;5.70;;
22060;SDS011;11194;48.092;-1.382;2023-08-06T03:42:27;10.48;;;5.50;;
22060;SDS011;11194;48.092;-1.382;2023-08-06T03:44:53;9.95;;;5.50;;
22060;SDS011;11194;48.092;-1.382;2023-08-06T03:47:19;8.18;;;6.45;;
22060;SDS011;11194;48.092;-1.382;2023-08-06T03:49:45;9.25;;;5.18;;
22060;SDS011;11194;48.092;-1.382;2023-08-06T03:52:11;12.30;;;6.22;;
22060;SDS011;11194;48.092;-1.382;2023-08-06T03:54:37;7.50;;;6.47;;
22060;SDS011;11194;48.092;-1.382;2023-08-06T03:57:04;8.77;;;6.22;;
22060;SDS011;11194;48.092;-1.382;2023-08-06T03:59:30;8.52;;;6.13;;
22060;SDS011;11194;48.092;-1.382;2023-08-06T04:01:56;10.75;;;6.43;;
22060;SDS011;11194;48.092;-1.382;2023-08-06T04:04:22;10.43;;;6.63;;
22060;SDS011;11194;48.092;-1.382;2023-08-06T04:06:48;11.38;;;6.70;;
22060;SDS011;11194;48.092;-1.382;2023-08-06T04:09:14;10.85;;;7.25;;
22060;SDS011;11194;48.092;-1.382;2023-08-06T04:11:40;11.88;;;7.60;;
22060;SDS011;11194;48.092;-1.382;2023-08-06T04:14:06;9.55;;;6.50;;
22060;SDS011;11194;48.092;-1.382;2023-08-06T04:16:32;7.38;;;6.78;;
22060;SDS011;11194;48.092;-1.382;2023-08-06T04:18:58;9.75;;;7.13;;
22060;SDS011;11194;48.092;-1.382;2023-08-06T04:21:24;11.23;;;7.50;;
22060;SDS011;11194;48.092;-1.382;2023-08-06T04:23:50;14.13;;;7.70;;
22060;SDS011;11194;48.092;-1.382;2023-08-06T04:26:16;10.05;;;7.15;;
22060;SDS011;11194;48.092;-1.382;2023-08-06T04:28:42;7.78;;;6.63;;
22060;SDS011;11194;48.092;-1.382;2023-08-06T04:31:08;13.70;;;7.00;;
22060;SDS011;11194;48.092;-1.382;2023-08-06T04:33:34;12.80;;;6.63;;
22060;SDS011;11194;48.092;-1.382;2023-08-06T04:36:00;7.95;;;6.80;;
22060;SDS011;11194;48.092;-1.382;2023-08-06T04:38:26;8.82;;;6.20;;
22060;SDS011;11194;48.092;-1.382;2023-08-06T04:40:52;16.92;;;6.20;;
22060;SDS011;11194;48.092;-1.382;2023-08-06T04:43:18;15.88;;;7.13;;
22060;SDS011;11194;48.092;-1.382;2023-08-06T04:45:51;11.90;;;6.43;;
22060;SDS011;11194;48.092;-1.382;2023-08-06T04:48:18;8.35;;;5.80;;
22060;SDS011;11194;48.092;-1.382;2023-08-06T04:50:44;9.23;;;6.10;;
22060;SDS011;11194;48.092;-1.382;2023-08-06T04:53:11;8.18;;;5.57;;
22060;SDS011;11194;48.092;-1.382;2023-08-06T04:55:37;8.30;;;5.85;;
22060;SDS011;11194;48.092;-1.382;2023-08-06T04:58:03;9.63;;;5.82;;
22060;SDS011;11194;48.092;-1.382;2023-08-06T05:00:29;9.38;;;5.50;;
22060;SDS011;11194;48.092;-1.382;2023-08-06T05:02:55;12.70;;;5.60;;
22060;SDS011;11194;48.092;-1.382;2023-08-06T05:05:21;10.10;;;5.25;;
22060;SDS011;11194;48.092;-1.382;2023-08-06T05:07:49;8.48;;;5.57;;
22060;SDS011;11194;48.092;-1.382;2023-08-06T05:10:15;10.02;;;5.30;;
22060;SDS011;11194;48.092;-1.382;2023-08-06T05:12:41;10.77;;;5.43;;
22060;SDS011;11194;48.092;-1.382;2023-08-06T05:15:08;11.90;;;6.07;;
22060;SDS011;11194;48.092;-1.382;2023-08-06T05:17:34;10.82;;;5.18;;
22060;SDS011;11194;48.092;-1.382;2023-08-06T05:20:00;7.57;;;5.20;;
22060;SDS011;11194;48.092;-1.382;2023-08-06T05:22:26;7.57;;;4.93;;
22060;SDS011;11194;48.092;-1.382;2023-08-06T05:24:52;10.85;;;5.22;;
22060;SDS011;11194;48.092;-1.382;2023-08-06T05:27:18;10.35;;;4.93;;
22060;SDS011;11194;48.092;-1.382;2023-08-06T05:29:45;11.43;;;5.57;;
22060;SDS011;11194;48.092;-1.382;2023-08-06T05:32:11;9.85;;;5.68;;
22060;SDS011;11194;48.092;-1.382;2023-08-06T05:34:37;14.68;;;6.22;;
22060;SDS011;11194;48.092;-1.382;2023-08-06T05:37:03;7.38;;;5.35;;
22060;SDS011;11194;48.092;-1.382;2023-08-06T05:39:29;11.32;;;5.60;;
22060;SDS011;11194;48.092;-1.382;2023-08-06T05:41:55;8.50;;;4.90;;
22060;SDS011;11194;48.092;-1.382;2023-08-06T05:44:22;10.50;;;5.22;;
22060;SDS011;11194;48.092;-1.382;2023-08-06T05:46:49;11.38;;;5.45;;
22060;SDS011;11194;48.092;-1.382;2023-08-06T05:49:15;9.63;;;5.05;;
22060;SDS011;11194;48.092;-1.382;2023-08-06T05:51:41;7.90;;;4.78;;
22060;SDS011;11194;48.092;-1.382;2023-08-06T05:54:07;9.77;;;5.22;;
22060;SDS011;11194;48.092;-1.382;2023-08-06T05:56:33;13.70;;;4.50;;
22060;SDS011;11194;48.092;-1.382;2023-08-06T05:58:59;10.32;;;4.47;;
22060;SDS011;11194;48.092;-1.382;2023-08-06T06:01:25;10.20;;;5.07;;
22060;SDS011;11194;48.092;-1.382;2023-08-06T06:03:52;12.98;;;5.25;;
22060;SDS011;11194;48.092;-1.382;2023-08-06T06:06:18;9.60;;;4.40;;
22060;SDS011;11194;48.092;-1.382;2023-08-06T06:08:45;20.48;;;4.80;;
22060;SDS011;11194;48.092;-1.382;2023-08-06T06:11:11;11.00;;;4.53;;
22060;SDS011;11194;48.092;-1.382;2023-08-06T06:13:37;11.90;;;4.60;;
22060;SDS011;11194;48.092;-1.382;2023-08-06T06:16:03;15.30;;;4.72;;
22060;SDS011;11194;48.092;-1.382;2023-08-06T06:18:30;10.48;;;4.38;;
22060;SDS011;11194;48.092;-1.382;2023-08-06T06:20:56;8.82;;;4.30;;
22060;SDS011;11194;48.092;-1.382;2023-08-06T06:23:22;9.15;;;3.90;;
22060;SDS011;11194;48.092;-1.382;2023-08-06T06:25:48;13.88;;;4.05;;
22060;SDS011;11194;48.092;-1.382;2023-08-06T06:28:17;9.35;;;3.90;;
22060;SDS011;11194;48.092;-1.382;2023-08-06T06:30:43;7.82;;;3.53;;
22060;SDS011;11194;48.092;-1.382;2023-08-06T06:33:09;9.40;;;3.95;;
22060;SDS011;11194;48.092;-1.382;2023-08-06T06:35:35;5.75;;;3.25;;
22060;SDS011;11194;48.092;-1.382;2023-08-06T06:38:01;7.25;;;3.35;;
22060;SDS011;11194;48.092;-1.382;2023-08-06T06:40:27;8.48;;;3.42;;
22060;SDS011;11194;48.092;-1.382;2023-08-06T06:42:53;12.77;;;3.45;;
22060;SDS011;11194;48.092;-1.382;2023-08-06T06:45:19;9.88;;;4.00;;
22060;SDS011;11194;48.092;-1.382;2023-08-06T06:47:45;11.45;;;3.80;;
22060;SDS011;11194;48.092;-1.382;2023-08-06T06:50:11;9.68;;;3.55;;
22060;SDS011;11194;48.092;-1.382;2023-08-06T06:52:38;10.70;;;4.03;;
22060;SDS011;11194;48.092;-1.382;2023-08-06T06:55:04;8.73;;;4.05;;
22060;SDS011;11194;48.092;-1.382;2023-08-06T06:57:30;9.38;;;3.70;;
22060;SDS011;11194;48.092;-1.382;2023-08-06T06:59:56;8.35;;;2.97;;
22060;SDS011;11194;48.092;-1.382;2023-08-06T07:02:22;9.93;;;3.10;;
22060;SDS011;11194;48.092;-1.382;2023-08-06T07:04:49;11.00;;;3.55;;
22060;SDS011;11194;48.092;-1.382;2023-08-06T07:07:15;12.02;;;2.53;;
22060;SDS011;11194;48.092;-1.382;2023-08-06T07:09:41;7.60;;;2.97;;
22060;SDS011;11194;48.092;-1.382;2023-08-06T07:12:07;7.32;;;2.72;;
22060;SDS011;11194;48.092;-1.382;2023-08-06T07:14:33;9.77;;;2.90;;
22060;SDS011;11194;48.092;-1.382;2023-08-06T07:16:59;10.13;;;2.58;;
22060;SDS011;11194;48.092;-1.382;2023-08-06T07:19:25;10.55;;;2.20;;
22060;SDS011;11194;48.092;-1.382;2023-08-06T07:21:52;7.45;;;2.42;;
22060;SDS011;11194;48.092;-1.382;2023-08-06T07:24:18;8.57;;;2.70;;
22060;SDS011;11194;48.092;-1.382;2023-08-06T07:26:44;9.35;;;2.25;;
22060;SDS011;11194;48.092;-1.382;2023-08-06T07:29:10;9.07;;;2.38;;
22060;SDS011;11194;48.092;-1.382;2023-08-06T07:31:36;7.80;;;2.45;;
22060;SDS011;11194;48.092;-1.382;2023-08-06T07:34:02;8.35;;;2.53;;
22060;SDS011;11194;48.092;-1.382;2023-08-06T07:36:28;6.68;;;2.00;;
22060;SDS011;11194;48.092;-1.382;2023-08-06T07:38:56;9.65;;;1.90;;
22060;SDS011;11194;48.092;-1.382;2023-08-06T07:41:23;6.18;;;1.92;;
22060;SDS011;11194;48.092;-1.382;2023-08-06T07:43:49;12.40;;;2.25;;
22060;SDS011;11194;48.092;-1.382;2023-08-06T07:46:15;7.07;;;1.75;;
22060;SDS011;11194;48.092;-1.382;2023-08-06T07:48:41;9.18;;;2.08;;
22060;SDS011;11194;48.092;-1.382;2023-08-06T07:51:08;7.60;;;2.05;;
22060;SDS011;11194;48.092;-1.382;2023-08-06T07:53:34;6.43;;;1.88;;
22060;SDS011;11194;48.092;-1.382;2023-08-06T07:56:00;10.20;;;2.28;;
22060;SDS011;11194;48.092;-1.382;2023-08-06T07:58:27;6.03;;;1.50;;
22060;SDS011;11194;48.092;-1.382;2023-08-06T08:00:54;6.93;;;2.03;;
22060;SDS011;11194;48.092;-1.382;2023-08-06T08:03:20;8.00;;;2.10;;
22060;SDS011;11194;48.092;-1.382;2023-08-06T08:05:47;7.28;;;1.65;;
22060;SDS011;11194;48.092;-1.382;2023-08-06T08:08:13;5.85;;;1.88;;
22060;SDS011;11194;48.092;-1.382;2023-08-06T08:10:39;6.20;;;1.90;;
22060;SDS011;11194;48.092;-1.382;2023-08-06T08:13:05;4.93;;;2.13;;
22060;SDS011;11194;48.092;-1.382;2023-08-06T08:15:31;6.40;;;1.98;;
22060;SDS011;11194;48.092;-1.382;2023-08-06T08:17:58;6.68;;;1.85;;
22060;SDS011;11194;48.092;-1.382;2023-08-06T08:20:25;5.75;;;1.83;;
22060;SDS011;11194;48.092;-1.382;2023-08-06T08:22:56;7.85;;;1.80;;
22060;SDS011;11194;48.092;-1.382;2023-08-06T08:25:22;9.93;;;1.85;;
22060;SDS011;11194;48.092;-1.382;2023-08-06T08:27:48;6.60;;;1.70;;
22060;SDS011;11194;48.092;-1.382;2023-08-06T08:30:14;10.38;;;2.08;;
22060;SDS011;11194;48.092;-1.382;2023-08-06T08:32:41;7.82;;;2.03;;
22060;SDS011;11194;48.092;-1.382;2023-08-06T08:35:07;5.30;;;1.83;;
22060;SDS011;11194;48.092;-1.382;2023-08-06T08:37:33;5.60;;;1.40;;
22060;SDS011;11194;48.092;-1.382;2023-08-06T08:39:59;4.53;;;1.20;;
22060;SDS011;11194;48.092;-1.382;2023-08-06T08:42:25;4.55;;;1.65;;
22060;SDS011;11194;48.092;-1.382;2023-08-06T08:44:52;3.53;;;1.55;;
22060;SDS011;11194;48.092;-1.382;2023-08-06T08:47:19;5.32;;;1.65;;
22060;SDS011;11194;48.092;-1.382;2023-08-06T08:49:46;5.43;;;1.40;;
22060;SDS011;11194;48.092;-1.382;2023-08-06T08:52:13;4.50;;;1.30;;
22060;SDS011;11194;48.092;-1.382;2023-08-06T08:54:40;4.50;;;1.60;;
22060;SDS011;11194;48.092;-1.382;2023-08-06T08:57:07;5.13;;;1.48;;
22060;SDS011;11194;48.092;-1.382;2023-08-06T08:59:33;2.38;;;1.45;;
22060;SDS011;11194;48.092;-1.382;2023-08-06T09:02:00;3.83;;;1.30;;
22060;SDS011;11194;48.092;-1.382;2023-08-06T09:04:27;8.13;;;1.58;;
22060;SDS011;11194;48.092;-1.382;2023-08-06T09:06:54;5.07;;;1.38;;
22060;SDS011;11194;48.092;-1.382;2023-08-06T09:09:22;5.03;;;1.63;;
22060;SDS011;11194;48.092;-1.382;2023-08-06T09:11:51;3.97;;;1.10;;
22060;SDS011;11194;48.092;-1.382;2023-08-06T09:14:17;3.65;;;1.30;;
22060;SDS011;11194;48.092;-1.382;2023-08-06T09:16:43;2.72;;;1.30;;
22060;SDS011;11194;48.092;-1.382;2023-08-06T09:19:13;3.00;;;1.42;;
22060;SDS011;11194;48.092;-1.382;2023-08-06T09:21:42;4.15;;;1.27;;
22060;SDS011;11194;48.092;-1.382;2023-08-06T09:24:09;3.90;;;1.00;;
22060;SDS011;11194;48.092;-1.382;2023-08-06T09:26:39;3.97;;;1.40;;
22060;SDS011;11194;48.092;-1.382;2023-08-06T09:29:06;3.55;;;1.27;;
22060;SDS011;11194;48.092;-1.382;2023-08-06T09:31:42;3.20;;;1.33;;
22060;SDS011;11194;48.092;-1.382;2023-08-06T09:36:41;5.10;;;1.20;;
22060;SDS011;11194;48.092;-1.382;2023-08-06T09:39:14;3.05;;;1.00;;
22060;SDS011;11194;48.092;-1.382;2023-08-06T09:41:41;3.30;;;1.20;;
22060;SDS011;11194;48.092;-1.382;2023-08-06T09:44:16;4.70;;;1.20;;
22060;SDS011;11194;48.092;-1.382;2023-08-06T09:46:47;3.63;;;1.40;;
22060;SDS011;11194;48.092;-1.382;2023-08-06T09:49:13;4.32;;;0.90;;
22060;SDS011;11194;48.092;-1.382;2023-08-06T09:51:39;2.67;;;1.40;;
22060;SDS011;11194;48.092;-1.382;2023-08-06T09:54:05;3.42;;;1.15;;
22060;SDS011;11194;48.092;-1.382;2023-08-06T09:56:35;2.00;;;1.00;;
22060;SDS011;11194;48.092;-1.382;2023-08-06T09:59:04;3.50;;;1.00;;
22060;SDS011;11194;48.092;-1.382;2023-08-06T10:01:34;2.72;;;0.90;;
22060;SDS011;11194;48.092;-1.382;2023-08-06T10:04:05;4.38;;;1.13;;
22060;SDS011;11194;48.092;-1.382;2023-08-06T10:06:35;3.10;;;1.25;;
22060;SDS011;11194;48.092;-1.382;2023-08-06T10:09:02;2.67;;;1.23;;
22060;SDS011;11194;48.092;-1.382;2023-08-06T10:11:29;4.25;;;1.15;;
22060;SDS011;11194;48.092;-1.382;2023-08-06T10:14:04;4.40;;;1.13;;
22060;SDS011;11194;48.092;-1.382;2023-08-06T10:16:32;2.13;;;0.95;;
22060;SDS011;11194;48.092;-1.382;2023-08-06T10:18:58;4.25;;;1.00;;
22060;SDS011;11194;48.092;-1.382;2023-08-06T10:21:25;4.70;;;1.23;;
22060;SDS011;11194;48.092;-1.382;2023-08-06T10:23:53;3.53;;;0.90;;
22060;SDS011;11194;48.092;-1.382;2023-08-06T10:26:20;3.72;;;1.23;;
22060;SDS011;11194;48.092;-1.382;2023-08-06T10:28:48;3.70;;;0.98;;
22060;SDS011;11194;48.092;-1.382;2023-08-06T10:31:14;4.00;;;1.30;;
22060;SDS011;11194;48.092;-1.382;2023-08-06T10:33:41;2.03;;;1.10;;
22060;SDS011;11194;48.092;-1.382;2023-08-06T10:36:08;3.63;;;1.20;;
22060;SDS011;11194;48.092;-1.382;2023-08-06T10:38:35;5.53;;;1.00;;
22060;SDS011;11194;48.092;-1.382;2023-08-06T10:41:03;2.55;;;1.25;;
22060;SDS011;11194;48.092;-1.382;2023-08-06T10:45:59;2.00;;;0.90;;
22060;SDS011;11194;48.092;-1.382;2023-08-06T10:50:56;2.55;;;0.90;;
22060;SDS011;11194;48.092;-1.382;2023-08-06T10:53:22;2.10;;;0.80;;
22060;SDS011;11194;48.092;-1.382;2023-08-06T10:55:48;1.52;;;0.60;;
22060;SDS011;11194;48.092;-1.382;2023-08-06T10:58:15;1.77;;;0.70;;
22060;SDS011;11194;48.092;-1.382;2023-08-06T11:00:41;2.53;;;1.45;;
22060;SDS011;11194;48.092;-1.382;2023-08-06T11:03:15;2.65;;;1.00;;
22060;SDS011;11194;48.092;-1.382;2023-08-06T11:05:48;4.65;;;1.52;;
22060;SDS011;11194;48.092;-1.382;2023-08-06T11:08:22;1.70;;;0.82;;
22060;SDS011;11194;48.092;-1.382;2023-08-06T11:10:48;3.28;;;1.02;;
22060;SDS011;11194;48.092;-1.382;2023-08-06T11:13:16;2.50;;;0.90;;
22060;SDS011;11194;48.092;-1.382;2023-08-06T11:15:44;1.30;;;0.82;;
22060;SDS011;11194;48.092;-1.382;2023-08-06T11:18:10;2.30;;;0.77;;
22060;SDS011;11194;48.092;-1.382;2023-08-06T11:20:37;4.88;;;0.85;;
22060;SDS011;11194;48.092;-1.382;2023-08-06T11:23:03;3.20;;;0.90;;
22060;SDS011;11194;48.092;-1.382;2023-08-06T11:25:29;1.90;;;0.93;;
22060;SDS011;11194;48.092;-1.382;2023-08-06T11:27:55;3.28;;;0.70;;
22060;SDS011;11194;48.092;-1.382;2023-08-06T11:30:21;2.10;;;0.77;;
22060;SDS011;11194;48.092;-1.382;2023-08-06T11:32:48;2.25;;;0.73;;
22060;SDS011;11194;48.092;-1.382;2023-08-06T11:35:14;1.15;;;0.70;;
22060;SDS011;11194;48.092;-1.382;2023-08-06T11:37:46;2.97;;;0.85;;
22060;SDS011;11194;48.092;-1.382;2023-08-06T11:40:14;2.50;;;0.80;;
22060;SDS011;11194;48.092;-1.382;2023-08-06T11:42:40;2.90;;;0.85;;
22060;SDS011;11194;48.092;-1.382;2023-08-06T11:45:08;1.33;;;0.50;;
22060;SDS011;11194;48.092;-1.382;2023-08-06T11:47:34;2.08;;;0.75;;
22060;SDS011;11194;48.092;-1.382;2023-08-06T11:50:03;1.10;;;0.70;;
22060;SDS011;11194;48.092;-1.382;2023-08-06T11:52:38;1.55;;;0.80;;
22060;SDS011;11194;48.092;-1.382;2023-08-06T11:55:06;1.20;;;0.70;;
22060;SDS011;11194;48.092;-1.382;2023-08-06T11:57:33;0.80;;;0.50;;
22060;SDS011;11194;48.092;-1.382;2023-08-06T12:00:04;3.20;;;0.80;;
22060;SDS011;11194;48.092;-1.382;2023-08-06T12:02:31;1.73;;;0.60;;
22060;SDS011;11194;48.092;-1.382;2023-08-06T12:05:20;2.90;;;0.93;;
22060;SDS011;11194;48.092;-1.382;2023-08-06T12:07:49;3.22;;;0.80;;
22060;SDS011;11194;48.092;-1.382;2023-08-06T12:10:15;2.92;;;0.90;;
22060;SDS011;11194;48.092;-1.382;2023-08-06T12:12:42;1.95;;;0.80;;
22060;SDS011;11194;48.092;-1.382;2023-08-06T12:15:08;1.30;;;0.60;;
22060;SDS011;11194;48.092;-1.382;2023-08-06T12:17:35;1.00;;;0.50;;
22060;SDS011;11194;48.092;-1.382;2023-08-06T12:20:03;1.50;;;0.75;;
22060;SDS011;11194;48.092;-1.382;2023-08-06T12:22:29;1.23;;;0.70;;
22060;SDS011;11194;48.092;-1.382;2023-08-06T12:25:03;2.65;;;0.90;;
22060;SDS011;11194;48.092;-1.382;2023-08-06T12:27:33;3.00;;;0.82;;
22060;SDS011;11194;48.092;-1.382;2023-08-06T12:29:59;3.10;;;0.73;;
22060;SDS011;11194;48.092;-1.382;2023-08-06T12:32:25;2.00;;;0.75;;
22060;SDS011;11194;48.092;-1.382;2023-08-06T12:34:52;1.42;;;0.60;;
22060;SDS011;11194;48.092;-1.382;2023-08-06T12:37:18;4.03;;;1.00;;
22060;SDS011;11194;48.092;-1.382;2023-08-06T12:39:44;1.27;;;0.73;;
22060;SDS011;11194;48.092;-1.382;2023-08-06T12:42:10;1.88;;;0.60;;
22060;SDS011;11194;48.092;-1.382;2023-08-06T12:44:36;1.75;;;0.63;;
22060;SDS011;11194;48.092;-1.382;2023-08-06T12:47:02;2.60;;;0.75;;
22060;SDS011;11194;48.092;-1.382;2023-08-06T12:49:28;1.23;;;0.68;;
22060;SDS011;11194;48.092;-1.382;2023-08-06T12:51:56;1.45;;;0.60;;
22060;SDS011;11194;48.092;-1.382;2023-08-06T12:54:24;2.25;;;0.73;;
22060;SDS011;11194;48.092;-1.382;2023-08-06T12:56:50;1.50;;;0.90;;
22060;SDS011;11194;48.092;-1.382;2023-08-06T12:59:17;2.72;;;0.90;;
22060;SDS011;11194;48.092;-1.382;2023-08-06T13:01:43;2.50;;;0.77;;
22060;SDS011;11194;48.092;-1.382;2023-08-06T13:04:10;1.73;;;0.73;;
22060;SDS011;11194;48.092;-1.382;2023-08-06T13:06:36;2.00;;;0.60;;
22060;SDS011;11194;48.092;-1.382;2023-08-06T13:09:04;2.05;;;0.77;;
22060;SDS011;11194;48.092;-1.382;2023-08-06T13:11:30;3.10;;;0.70;;
22060;SDS011;11194;48.092;-1.382;2023-08-06T13:14:03;2.35;;;1.02;;
22060;SDS011;11194;48.092;-1.382;2023-08-06T13:16:32;4.90;;;0.80;;
22060;SDS011;11194;48.092;-1.382;2023-08-06T13:18:58;2.05;;;0.75;;
22060;SDS011;11194;48.092;-1.382;2023-08-06T13:21:30;1.75;;;0.70;;
22060;SDS011;11194;48.092;-1.382;2023-08-06T13:23:56;1.80;;;0.75;;
22060;SDS011;11194;48.092;-1.382;2023-08-06T13:26:23;2.80;;;0.80;;
22060;SDS011;11194;48.092;-1.382;2023-08-06T13:28:49;1.58;;;0.73;;
22060;SDS011;11194;48.092;-1.382;2023-08-06T13:31:15;1.20;;;0.70;;
22060;SDS011;11194;48.092;-1.382;2023-08-06T13:33:42;2.85;;;0.80;;
22060;SDS011;11194;48.092;-1.382;2023-08-06T13:36:08;2.45;;;0.75;;
22060;SDS011;11194;48.092;-1.382;2023-08-06T13:38:34;4.80;;;0.90;;
22060;SDS011;11194;48.092;-1.382;2023-08-06T13:41:00;2.45;;;1.00;;
22060;SDS011;11194;48.092;-1.382;2023-08-06T13:43:27;5.28;;;0.90;;
22060;SDS011;11194;48.092;-1.382;2023-08-06T13:45:53;3.40;;;1.00;;
22060;SDS011;11194;48.092;-1.382;2023-08-06T13:48:19;2.08;;;0.88;;
22060;SDS011;11194;48.092;-1.382;2023-08-06T13:50:45;1.75;;;0.80;;
22060;SDS011;11194;48.092;-1.382;2023-08-06T13:53:11;1.58;;;0.70;;
22060;SDS011;11194;48.092;-1.382;2023-08-06T13:55:37;1.02;;;0.63;;
22060;SDS011;11194;48.092;-1.382;2023-08-06T13:58:03;2.40;;;0.82;;
22060;SDS011;11194;48.092;-1.382;2023-08-06T14:00:29;5.65;;;1.00;;
22060;SDS011;11194;48.092;-1.382;2023-08-06T14:02:55;2.13;;;0.70;;
22060;SDS011;11194;48.092;-1.382;2023-08-06T14:05:21;2.10;;;0.80;;
22060;SDS011;11194;48.092;-1.382;2023-08-06T14:07:47;1.52;;;0.88;;
22060;SDS011;11194;48.092;-1.382;2023-08-06T14:10:13;2.08;;;0.90;;
22060;SDS011;11194;48.092;-1.382;2023-08-06T14:12:40;2.35;;;0.80;;
22060;SDS011;11194;48.092;-1.382;2023-08-06T14:15:06;1.73;;;1.05;;
22060;SDS011;11194;48.092;-1.382;2023-08-06T14:17:32;3.78;;;0.73;;
22060;SDS011;11194;48.092;-1.382;2023-08-06T14:19:58;2.97;;;1.08;;
22060;SDS011;11194;48.092;-1.382;2023-08-06T14:22:25;1.23;;;0.80;;
22060;SDS011;11194;48.092;-1.382;2023-08-06T14:24:51;2.15;;;0.82;;
22060;SDS011;11194;48.092;-1.382;2023-08-06T14:27:18;1.80;;;0.80;;
22060;SDS011;11194;48.092;-1.382;2023-08-06T14:29:44;2.63;;;1.00;;
22060;SDS011;11194;48.092;-1.382;2023-08-06T14:32:10;2.92;;;0.90;;
22060;SDS011;11194;48.092;-1.382;2023-08-06T14:34:36;2.67;;;0.80;;
22060;SDS011;11194;48.092;-1.382;2023-08-06T14:37:02;3.80;;;1.02;;
22060;SDS011;11194;48.092;-1.382;2023-08-06T14:39:29;1.75;;;0.85;;
22060;SDS011;11194;48.092;-1.382;2023-08-06T14:41:55;4.10;;;1.10;;
22060;SDS011;11194;48.092;-1.382;2023-08-06T14:44:21;1.77;;;1.00;;
22060;SDS011;11194;48.092;-1.382;2023-08-06T14:46:47;2.63;;;1.42;;